createdAt,value
2019-02-18T00:01:15.533Z,19.39
2019-02-18T00:03:41.535Z,19.39
2019-02-18T00:06:07.512Z,19.37
2019-02-18T00:08:33.521Z,19.37
2019-02-18T00:10:59.504Z,19.39
2019-02-18T00:13:25.479Z,19.36
2019-02-18T00:15:51.508Z,19.35
2019-02-18T00:18:17.495Z,19.35
2019-02-18T00:20:43.500Z,19.35
2019-02-18T00:23:09.490Z,19.33
2019-02-18T00:25:35.828Z,19.34
2019-02-18T00:28:01.897Z,19.32
2019-02-18T00:30:27.881Z,19.32
2019-02-18T00:32:53.885Z,19.31
2019-02-18T00:35:19.947Z,19.30
2019-02-18T00:37:45.956Z,19.28
2019-02-18T00:40:11.929Z,19.28
2019-02-18T00:42:37.917Z,19.27
2019-02-18T00:45:03.888Z,19.27
2019-02-18T00:47:29.869Z,19.28
2019-02-18T00:49:55.892Z,19.30
2019-02-18T00:52:21.880Z,19.30
2019-02-18T00:54:47.889Z,19.26
2019-02-18T00:57:13.871Z,19.27
2019-02-18T00:59:39.876Z,19.30
2019-02-18T01:02:05.867Z,19.28
2019-02-18T01:04:31.948Z,19.28
2019-02-18T01:06:57.929Z,19.28
2019-02-18T01:09:23.923Z,19.25
2019-02-18T01:11:49.970Z,19.25
2019-02-18T01:14:15.952Z,19.25
2019-02-18T01:16:41.946Z,19.24
2019-02-18T01:19:07.922Z,19.23
2019-02-18T01:21:33.906Z,19.23
2019-02-18T01:23:59.886Z,19.22
2019-02-18T01:26:25.879Z,19.21
2019-02-18T01:28:51.880Z,19.21
2019-02-18T01:31:17.859Z,19.20
2019-02-18T01:33:43.836Z,19.20
2019-02-18T01:36:09.832Z,19.21
2019-02-18T01:38:35.803Z,19.22
2019-02-18T01:41:01.796Z,19.20
2019-02-18T01:43:27.768Z,19.21
2019-02-18T01:45:53.762Z,19.20
2019-02-18T01:48:19.746Z,19.20
2019-02-18T01:50:45.757Z,19.21
2019-02-18T01:53:11.781Z,19.19
2019-02-18T01:55:37.788Z,19.18
2019-02-18T01:58:03.767Z,19.20
2019-02-18T02:00:29.750Z,19.20
2019-02-18T02:02:55.758Z,19.18
2019-02-18T02:05:21.753Z,19.18
2019-02-18T02:07:55.940Z,19.17
2019-02-18T02:10:15.484Z,19.17
2019-02-18T02:12:41.473Z,19.14
2019-02-18T02:15:07.458Z,19.15
2019-02-18T02:17:33.480Z,19.14
2019-02-18T02:19:59.521Z,19.15
2019-02-18T02:22:25.520Z,19.14
2019-02-18T02:24:51.541Z,19.13
2019-02-18T02:27:17.718Z,19.15
2019-02-18T02:29:43.806Z,19.19
2019-02-18T02:32:09.785Z,19.22
2019-02-18T02:34:35.762Z,19.24
2019-02-18T02:37:01.758Z,19.26
2019-02-18T02:39:27.723Z,19.26
2019-02-18T02:41:53.733Z,19.28
2019-02-18T02:44:19.803Z,19.30
2019-02-18T02:46:45.786Z,19.31
2019-02-18T02:49:11.850Z,19.32
2019-02-18T02:51:37.829Z,19.32
2019-02-18T02:54:03.825Z,19.33
2019-02-18T02:56:29.801Z,19.34
2019-02-18T02:58:55.802Z,19.36
2019-02-18T03:01:21.773Z,19.35
2019-02-18T03:03:47.763Z,19.37
2019-02-18T03:06:13.746Z,19.38
2019-02-18T03:08:39.759Z,19.40
2019-02-18T03:11:05.741Z,19.40
2019-02-18T03:13:31.729Z,19.40
2019-02-18T03:15:57.723Z,19.41
2019-02-18T03:18:23.715Z,19.41
2019-02-18T03:20:49.753Z,19.41
2019-02-18T03:23:15.724Z,19.41
2019-02-18T03:25:41.701Z,19.42
2019-02-18T03:28:07.670Z,19.41
2019-02-18T03:30:33.744Z,19.41
2019-02-18T03:32:59.715Z,19.42
2019-02-18T03:35:25.694Z,19.42
2019-02-18T03:37:51.670Z,19.41
2019-02-18T03:40:17.672Z,19.43
2019-02-18T03:42:43.653Z,19.42
2019-02-18T03:45:09.710Z,19.42
2019-02-18T03:47:35.694Z,19.43
2019-02-18T03:50:01.757Z,19.43
2019-02-18T03:52:27.745Z,19.44
2019-02-18T03:54:53.759Z,19.45
2019-02-18T03:57:19.754Z,19.45
2019-02-18T03:59:45.740Z,19.46
2019-02-18T04:02:11.805Z,19.45
2019-02-18T04:04:37.772Z,19.46
2019-02-18T04:07:03.770Z,19.46
2019-02-18T04:09:29.753Z,19.46
2019-02-18T04:11:55.848Z,19.47
2019-02-18T04:14:21.825Z,19.46
2019-02-18T04:16:47.830Z,19.47
2019-02-18T04:19:13.900Z,19.47
2019-02-18T04:21:39.908Z,19.48
2019-02-18T04:24:05.894Z,19.48
2019-02-18T04:26:31.867Z,19.47
2019-02-18T04:28:57.853Z,19.48
2019-02-18T04:31:23.850Z,19.48
2019-02-18T04:33:49.840Z,19.48
2019-02-18T04:36:15.827Z,19.48
2019-02-18T04:38:41.849Z,19.49
2019-02-18T04:41:07.855Z,19.52
2019-02-18T04:43:33.839Z,19.50
2019-02-18T04:45:59.924Z,19.50
2019-02-18T04:48:25.942Z,19.49
2019-02-18T04:50:51.938Z,19.49
2019-02-18T04:53:17.914Z,19.49
2019-02-18T04:55:43.972Z,19.49
2019-02-18T04:58:09.982Z,19.50
2019-02-18T05:00:36.032Z,19.47
2019-02-18T05:03:02.041Z,19.46
2019-02-18T05:05:28.026Z,19.46
2019-02-18T05:07:54.000Z,19.47
2019-02-18T05:10:19.986Z,19.44
2019-02-18T05:12:46.005Z,19.43
2019-02-18T05:15:12.003Z,19.44
2019-02-18T05:17:37.988Z,19.44
2019-02-18T05:20:03.995Z,19.43
2019-02-18T05:22:30.016Z,19.43
2019-02-18T05:24:56.018Z,19.43
2019-02-18T05:27:32.775Z,19.44
2019-02-18T05:29:49.711Z,19.46
2019-02-18T05:32:15.705Z,19.44
2019-02-18T05:34:41.765Z,19.45
2019-02-18T05:37:07.780Z,19.46
2019-02-18T05:39:33.767Z,19.47
2019-02-18T05:41:59.801Z,19.47
2019-02-18T05:44:25.856Z,19.48
2019-02-18T05:46:51.882Z,19.48
2019-02-18T05:49:17.863Z,19.48
2019-02-18T05:51:43.866Z,19.48
2019-02-18T05:54:09.843Z,19.48
2019-02-18T05:56:35.829Z,19.48
2019-02-18T05:59:01.819Z,19.48
2019-02-18T06:01:27.806Z,19.48
2019-02-18T06:03:53.802Z,19.46
2019-02-18T06:06:19.790Z,19.46
2019-02-18T06:08:45.805Z,19.45
2019-02-18T06:11:11.864Z,19.45
2019-02-18T06:13:37.852Z,19.45
2019-02-18T06:16:03.879Z,19.45
2019-02-18T06:18:29.859Z,19.45
2019-02-18T06:20:55.839Z,19.45
2019-02-18T06:23:21.841Z,19.46
2019-02-18T06:25:47.937Z,19.46
2019-02-18T06:28:14.066Z,19.44
2019-02-18T06:30:40.061Z,19.45
2019-02-18T06:33:06.054Z,19.47
2019-02-18T06:35:32.074Z,19.49
2019-02-18T06:37:58.072Z,19.47
2019-02-18T06:40:24.140Z,19.47
2019-02-18T06:42:50.137Z,19.48
2019-02-18T06:45:16.187Z,19.48
2019-02-18T06:47:42.164Z,19.48
2019-02-18T06:50:08.136Z,19.49
2019-02-18T06:52:34.172Z,19.48
2019-02-18T06:55:00.319Z,19.47
2019-02-18T06:57:26.419Z,19.48
2019-02-18T06:59:52.395Z,19.48
2019-02-18T07:02:18.387Z,19.46
2019-02-18T07:04:44.377Z,19.48
2019-02-18T07:07:10.359Z,19.50
2019-02-18T07:09:36.335Z,19.49
2019-02-18T07:12:02.338Z,19.49
2019-02-18T07:14:28.299Z,19.47
2019-02-18T07:16:54.281Z,19.46
2019-02-18T07:19:20.261Z,19.46
2019-02-18T07:21:46.245Z,19.45
2019-02-18T07:24:12.224Z,19.44
2019-02-18T07:26:38.229Z,19.43
2019-02-18T07:29:04.205Z,19.43
2019-02-18T07:31:30.223Z,19.43
2019-02-18T07:33:56.201Z,19.43
2019-02-18T07:36:22.256Z,19.43
2019-02-18T07:38:48.261Z,19.42
2019-02-18T07:41:14.239Z,19.42
2019-02-18T07:43:40.264Z,19.42
2019-02-18T07:46:06.312Z,19.41
2019-02-18T07:48:32.314Z,19.40
2019-02-18T07:50:58.346Z,19.42
2019-02-18T07:53:24.404Z,19.46
2019-02-18T07:55:50.438Z,19.47
2019-02-18T07:58:16.426Z,19.46
2019-02-18T08:00:42.444Z,19.48
2019-02-18T08:03:08.447Z,19.48
2019-02-18T08:05:34.462Z,19.48
2019-02-18T08:08:00.451Z,19.47
2019-02-18T08:10:26.478Z,19.48
2019-02-18T08:12:52.495Z,19.46
2019-02-18T08:15:18.479Z,19.46
2019-02-18T08:17:44.465Z,19.46
2019-02-18T08:20:10.539Z,19.45
2019-02-18T08:22:36.522Z,19.44
2019-02-18T08:25:02.512Z,19.44
2019-02-18T08:27:28.583Z,19.45
2019-02-18T08:29:54.557Z,19.45
2019-02-18T08:32:20.659Z,19.43
2019-02-18T08:34:46.740Z,19.43
2019-02-18T08:37:12.719Z,19.43
2019-02-18T08:39:38.724Z,19.42
2019-02-18T08:42:04.700Z,19.42
2019-02-18T08:44:30.687Z,19.42
2019-02-18T08:46:56.711Z,19.43
2019-02-18T08:49:22.699Z,19.44
2019-02-18T08:51:48.752Z,19.45
2019-02-18T08:54:14.752Z,19.45
2019-02-18T08:56:40.818Z,19.42
2019-02-18T08:59:06.785Z,19.42
2019-02-18T09:01:32.760Z,19.42
2019-02-18T09:03:58.749Z,19.40
2019-02-18T09:06:24.742Z,19.41
2019-02-18T09:08:50.788Z,19.45
2019-02-18T09:11:16.805Z,19.48
2019-02-18T09:13:42.820Z,19.51
2019-02-18T09:16:08.893Z,19.54
2019-02-18T09:18:36.861Z,19.54
2019-02-18T09:21:02.836Z,19.57
2019-02-18T09:23:28.835Z,19.59
2019-02-18T09:25:55.627Z,19.63
2019-02-18T09:28:22.769Z,19.69
2019-02-18T09:30:48.808Z,19.71
2019-02-18T09:33:14.797Z,19.71
2019-02-18T09:35:40.827Z,19.74
2019-02-18T09:38:07.917Z,19.76
2019-02-18T09:40:43.925Z,19.78
2019-02-18T09:43:01.755Z,19.81
2019-02-18T09:45:27.758Z,19.80
2019-02-18T09:47:54.438Z,19.80
2019-02-18T09:50:20.608Z,19.84
2019-02-18T09:52:46.616Z,19.86
2019-02-18T09:55:12.615Z,19.88
2019-02-18T09:57:38.681Z,19.87
2019-02-18T10:00:04.740Z,19.89
2019-02-18T10:02:30.730Z,19.89
2019-02-18T10:04:56.753Z,19.93
2019-02-18T10:07:22.782Z,20.04
2019-02-18T10:09:48.835Z,20.12
2019-02-18T10:12:18.283Z,20.17
2019-02-18T10:14:42.589Z,20.21
2019-02-18T10:17:08.585Z,20.23
2019-02-18T10:19:34.576Z,20.25
2019-02-18T10:22:00.590Z,20.25
2019-02-18T10:24:26.560Z,20.26
2019-02-18T10:26:52.592Z,20.28
2019-02-18T10:29:18.694Z,20.30
2019-02-18T10:31:44.695Z,20.34
2019-02-18T10:34:10.728Z,20.37
2019-02-18T10:36:36.742Z,20.38
2019-02-18T10:39:02.744Z,20.42
2019-02-18T10:41:28.787Z,20.46
2019-02-18T10:43:54.868Z,20.47
2019-02-18T10:46:20.868Z,20.52
2019-02-18T10:48:46.879Z,20.53
2019-02-18T10:51:12.866Z,20.55
2019-02-18T10:53:38.930Z,20.58
2019-02-18T10:56:05.008Z,20.58
2019-02-18T10:58:31.013Z,20.60
2019-02-18T11:00:57.126Z,20.61
2019-02-18T11:03:23.100Z,20.63
2019-02-18T11:05:49.106Z,20.64
2019-02-18T11:08:15.159Z,20.64
2019-02-18T11:10:41.171Z,20.64
2019-02-18T11:13:07.153Z,20.79
2019-02-18T11:15:33.167Z,20.84
2019-02-18T11:17:59.150Z,20.87
2019-02-18T11:20:25.122Z,20.93
2019-02-18T11:22:51.132Z,20.91
2019-02-18T11:25:17.111Z,20.92
2019-02-18T11:27:43.116Z,20.92
2019-02-18T11:30:09.172Z,20.95
2019-02-18T11:32:35.555Z,20.96
2019-02-18T11:35:01.553Z,20.89
2019-02-18T11:37:27.631Z,20.89
2019-02-18T11:39:53.619Z,20.79
2019-02-18T11:42:19.602Z,20.81
2019-02-18T11:44:45.608Z,20.86
2019-02-18T11:47:11.618Z,20.96
2019-02-18T11:49:37.708Z,20.92
2019-02-18T11:52:03.687Z,20.94
2019-02-18T11:54:29.677Z,21.01
2019-02-18T11:56:55.787Z,21.09
2019-02-18T11:59:24.211Z,21.15
2019-02-18T12:01:49.559Z,21.16
2019-02-18T12:04:15.607Z,21.08
2019-02-18T12:06:41.616Z,21.03
2019-02-18T12:09:08.986Z,20.89
2019-02-18T12:11:38.068Z,20.88
2019-02-18T12:14:02.881Z,20.80
2019-02-18T12:16:28.937Z,20.83
2019-02-18T12:18:55.061Z,20.78
2019-02-18T12:21:21.031Z,20.82
2019-02-18T12:23:47.116Z,20.90
2019-02-18T12:26:13.141Z,20.87
2019-02-18T12:28:39.190Z,20.82
2019-02-18T12:31:05.714Z,20.98
2019-02-18T12:33:31.762Z,21.05
2019-02-18T12:35:57.756Z,21.02
2019-02-18T12:38:23.837Z,21.02
2019-02-18T12:40:49.933Z,21.00
2019-02-18T12:43:15.997Z,21.00
2019-02-18T12:45:41.986Z,20.95
2019-02-18T12:48:08.072Z,20.90
2019-02-18T12:50:34.441Z,20.88
2019-02-18T12:53:00.470Z,20.95
2019-02-18T12:55:26.646Z,20.99
2019-02-18T12:57:52.986Z,20.98
2019-02-18T13:00:18.986Z,21.05
2019-02-18T13:02:45.345Z,21.08
2019-02-18T13:05:11.514Z,21.07
2019-02-18T13:07:37.536Z,21.06
2019-02-18T13:10:05.366Z,21.08
2019-02-18T13:12:31.307Z,21.10
2019-02-18T13:14:57.776Z,21.08
2019-02-18T13:17:23.856Z,21.09
2019-02-18T13:19:49.955Z,21.08
2019-02-18T13:22:15.938Z,21.05
2019-02-18T13:24:41.993Z,21.15
2019-02-18T13:27:08.056Z,21.09
2019-02-18T13:29:34.067Z,21.10
2019-02-18T13:32:00.147Z,21.11
2019-02-18T13:34:26.192Z,21.05
2019-02-18T13:36:52.180Z,21.05
2019-02-18T13:39:18.252Z,21.10
2019-02-18T13:41:44.232Z,21.16
2019-02-18T13:44:10.346Z,21.14
2019-02-18T13:46:36.424Z,21.14
2019-02-18T13:49:02.521Z,21.12
2019-02-18T13:51:28.576Z,21.16
2019-02-18T13:53:54.557Z,21.25
2019-02-18T13:56:20.537Z,21.30
2019-02-18T13:58:46.997Z,21.34
2019-02-18T14:01:13.099Z,21.31
2019-02-18T14:03:39.078Z,21.27
2019-02-18T14:06:05.162Z,21.13
2019-02-18T14:08:31.147Z,21.02
2019-02-18T14:10:57.138Z,20.95
2019-02-18T14:13:23.202Z,20.95
2019-02-18T14:15:49.248Z,20.90
2019-02-18T14:18:15.718Z,20.94
2019-02-18T14:20:41.717Z,20.80
2019-02-18T14:23:07.779Z,20.87
2019-02-18T14:25:33.772Z,20.92
2019-02-18T14:27:59.831Z,20.92
2019-02-18T14:30:25.929Z,20.97
2019-02-18T14:32:51.928Z,21.07
2019-02-18T14:35:17.923Z,21.10
2019-02-18T14:37:43.898Z,21.10
2019-02-18T14:40:10.090Z,21.13
2019-02-18T14:42:36.087Z,21.11
2019-02-18T14:45:02.158Z,21.09
2019-02-18T14:47:28.214Z,21.12
2019-02-18T14:49:54.221Z,21.12
2019-02-18T14:52:20.302Z,21.06
2019-02-18T14:54:46.292Z,21.08
2019-02-18T14:57:12.300Z,21.06
2019-02-18T14:59:38.672Z,21.15
2019-02-18T15:02:04.712Z,21.19
2019-02-18T15:04:30.774Z,21.07
2019-02-18T15:06:56.863Z,20.93
2019-02-18T15:09:22.942Z,20.96
2019-02-18T15:11:49.015Z,20.98
2019-02-18T15:14:15.008Z,20.96
2019-02-18T15:16:41.116Z,20.90
2019-02-18T15:19:07.592Z,20.88
2019-02-18T15:21:33.641Z,20.82
2019-02-18T15:23:59.642Z,20.80
2019-02-18T15:26:25.727Z,20.80
2019-02-18T15:28:51.724Z,20.83
2019-02-18T15:31:17.720Z,20.73
2019-02-18T15:33:43.816Z,20.70
2019-02-18T15:36:09.899Z,20.72
2019-02-18T15:38:36.103Z,20.70
2019-02-18T15:41:02.180Z,20.65
2019-02-18T15:43:28.166Z,20.62
2019-02-18T15:45:54.145Z,20.62
2019-02-18T15:48:20.226Z,20.57
2019-02-18T15:50:46.308Z,20.52
2019-02-18T15:53:12.329Z,20.53
2019-02-18T15:55:38.378Z,20.52
2019-02-18T15:58:04.460Z,20.50
2019-02-18T16:00:30.807Z,20.46
2019-02-18T16:02:56.887Z,20.46
2019-02-18T16:05:22.869Z,20.43
2019-02-18T16:07:48.859Z,20.41
2019-02-18T16:10:14.852Z,20.43
2019-02-18T16:12:41.033Z,20.40
2019-02-18T16:15:07.373Z,20.39
2019-02-18T16:17:33.664Z,20.38
2019-02-18T16:20:00.040Z,20.37
2019-02-18T16:22:26.096Z,20.37
2019-02-18T16:24:52.117Z,20.32
2019-02-18T16:27:18.117Z,20.32
2019-02-18T16:29:44.126Z,20.31
2019-02-18T16:32:10.128Z,20.30
2019-02-18T16:34:36.138Z,20.30
2019-02-18T16:37:02.509Z,20.30
2019-02-18T16:39:28.505Z,20.28
2019-02-18T16:41:54.858Z,20.25
2019-02-18T16:44:20.933Z,20.25
2019-02-18T16:46:47.019Z,20.26
2019-02-18T16:49:13.430Z,20.25
2019-02-18T16:51:39.495Z,20.23
2019-02-18T16:54:05.510Z,20.22
2019-02-18T16:56:31.670Z,20.24
2019-02-18T16:58:58.159Z,20.24
2019-02-18T17:01:24.217Z,20.23
2019-02-18T17:03:50.277Z,20.22
2019-02-18T17:06:16.339Z,20.22
2019-02-18T17:08:42.451Z,20.23
2019-02-18T17:11:08.496Z,20.20
2019-02-18T17:13:34.568Z,20.19
2019-02-18T17:16:00.656Z,20.19
2019-02-18T17:18:26.874Z,20.19
2019-02-18T17:20:53.013Z,20.17
2019-02-18T17:23:19.260Z,20.16
2019-02-18T17:25:48.462Z,20.16
2019-02-18T17:28:14.278Z,20.16
2019-02-18T17:30:40.348Z,20.15
2019-02-18T17:33:06.336Z,20.15
2019-02-18T17:35:32.374Z,20.12
2019-02-18T17:37:58.573Z,20.09
2019-02-18T17:40:24.833Z,20.10
2019-02-18T17:42:50.926Z,20.11
2019-02-18T17:45:16.999Z,20.09
2019-02-18T17:47:43.121Z,20.07
2019-02-18T17:50:09.196Z,20.09
2019-02-18T17:52:35.406Z,20.10
2019-02-18T17:55:01.495Z,20.11
2019-02-18T17:57:27.588Z,20.10
2019-02-18T17:59:54.011Z,20.08
2019-02-18T18:02:20.065Z,20.09
2019-02-18T18:04:46.238Z,20.09
2019-02-18T18:07:12.292Z,20.08
2019-02-18T18:09:38.295Z,20.05
2019-02-18T18:12:04.297Z,20.12
2019-02-18T18:14:30.297Z,20.19
2019-02-18T18:16:56.359Z,20.22
2019-02-18T18:19:22.523Z,20.25
2019-02-18T18:21:48.655Z,20.23
2019-02-18T18:24:14.691Z,20.12
2019-02-18T18:26:40.825Z,20.08
2019-02-18T18:29:06.871Z,20.02
2019-02-18T18:31:32.902Z,20.00
2019-02-18T18:33:58.953Z,20.00
2019-02-18T18:36:24.978Z,20.02
2019-02-18T18:38:50.989Z,20.03
2019-02-18T18:41:17.429Z,20.03
2019-02-18T18:43:43.433Z,20.02
2019-02-18T18:46:09.452Z,20.03
2019-02-18T18:48:35.529Z,20.03
2019-02-18T18:51:01.543Z,20.02
2019-02-18T18:53:27.628Z,20.01
2019-02-18T18:55:53.688Z,20.00
2019-02-18T18:58:19.703Z,19.98
2019-02-18T19:00:45.964Z,20.00
2019-02-18T19:03:12.001Z,19.98
2019-02-18T19:05:38.114Z,19.97
2019-02-18T19:08:04.118Z,19.96
2019-02-18T19:10:32.221Z,19.95
2019-02-18T19:12:58.305Z,19.95
2019-02-18T19:15:24.389Z,19.94
2019-02-18T19:17:50.811Z,19.94
2019-02-18T19:20:16.848Z,19.93
2019-02-18T19:22:42.868Z,19.94
2019-02-18T19:25:08.948Z,19.95
2019-02-18T19:27:35.191Z,19.94
2019-02-18T19:30:01.187Z,19.95
2019-02-18T19:32:27.228Z,19.94
2019-02-18T19:34:53.326Z,19.96
2019-02-18T19:37:19.729Z,19.98
2019-02-18T19:39:45.745Z,19.97
2019-02-18T19:42:11.812Z,19.99
2019-02-18T19:44:37.917Z,19.96
2019-02-18T19:47:03.915Z,19.96
2019-02-18T19:49:29.921Z,19.95
2019-02-18T19:51:55.942Z,19.94
2019-02-18T19:54:22.056Z,19.94
2019-02-18T19:56:48.427Z,19.91
2019-02-18T19:59:14.418Z,19.93
2019-02-18T20:01:40.623Z,19.95
2019-02-18T20:04:06.683Z,19.92
2019-02-18T20:06:32.678Z,19.92
2019-02-18T20:08:58.698Z,19.91
2019-02-18T20:11:24.808Z,19.92
2019-02-18T20:13:58.569Z,19.88
2019-02-18T20:16:18.716Z,19.87
2019-02-18T20:18:44.823Z,19.86
2019-02-18T20:21:10.807Z,19.85
2019-02-18T20:23:36.933Z,19.89
2019-02-18T20:26:03.391Z,19.90
2019-02-18T20:28:29.834Z,19.89
2019-02-18T20:30:55.976Z,19.87
2019-02-18T20:33:22.167Z,19.88
2019-02-18T20:35:48.475Z,19.88
2019-02-18T20:38:14.557Z,19.87
2019-02-18T20:40:40.581Z,19.86
2019-02-18T20:43:07.684Z,19.85
2019-02-18T20:45:33.698Z,19.83
2019-02-18T20:47:59.820Z,19.84
2019-02-18T20:50:25.876Z,19.85
2019-02-18T20:52:51.891Z,19.84
2019-02-18T20:55:18.069Z,19.82
2019-02-18T20:57:44.105Z,19.81
2019-02-18T21:00:10.284Z,19.81
2019-02-18T21:02:36.266Z,19.80
2019-02-18T21:05:02.248Z,19.80
2019-02-18T21:07:28.348Z,19.79
2019-02-18T21:09:54.388Z,19.78
2019-02-18T21:12:21.395Z,19.79
2019-02-18T21:14:47.867Z,19.82
2019-02-18T21:17:13.886Z,19.84
2019-02-18T21:19:39.947Z,19.83
2019-02-18T21:22:05.979Z,19.79
2019-02-18T21:24:32.090Z,19.77
2019-02-18T21:26:58.169Z,19.75
2019-02-18T21:29:24.221Z,19.74
2019-02-18T21:31:50.422Z,19.75
2019-02-18T21:34:16.701Z,19.74
2019-02-18T21:36:42.721Z,19.73
2019-02-18T21:39:08.732Z,19.72
2019-02-18T21:41:34.711Z,19.73
2019-02-18T21:44:00.858Z,19.74
2019-02-18T21:46:26.854Z,19.70
2019-02-18T21:48:52.865Z,19.71
2019-02-18T21:51:18.878Z,19.71
2019-02-18T21:53:45.239Z,19.71
2019-02-18T21:56:11.306Z,19.69
2019-02-18T21:58:37.436Z,19.69
2019-02-18T22:01:03.537Z,19.68
2019-02-18T22:03:29.626Z,19.68
2019-02-18T22:05:55.604Z,19.68
2019-02-18T22:08:21.651Z,19.66
2019-02-18T22:10:47.630Z,19.67
2019-02-18T22:13:13.723Z,19.66
2019-02-18T22:15:39.702Z,19.67
2019-02-18T22:18:05.773Z,19.67
2019-02-18T22:20:31.757Z,19.66
2019-02-18T22:22:57.809Z,19.66
2019-02-18T22:25:23.832Z,19.66
2019-02-18T22:27:49.852Z,19.70
2019-02-18T22:30:15.891Z,19.72
2019-02-18T22:32:41.948Z,19.75
2019-02-18T22:35:07.949Z,19.72
2019-02-18T22:37:34.128Z,19.73
2019-02-18T22:40:00.362Z,19.70
2019-02-18T22:42:26.690Z,19.69
2019-02-18T22:44:53.060Z,19.68
2019-02-18T22:47:19.354Z,19.68
2019-02-18T22:49:45.493Z,19.67
2019-02-18T22:52:11.489Z,19.67
2019-02-18T22:54:37.512Z,19.67
2019-02-18T22:57:03.520Z,19.67
2019-02-18T22:59:29.913Z,19.65
2019-02-18T23:01:55.915Z,19.65
2019-02-18T23:04:21.931Z,19.65
2019-02-18T23:06:47.924Z,19.64
2019-02-18T23:09:13.924Z,19.63
2019-02-18T23:11:40.021Z,19.62
2019-02-18T23:14:06.004Z,19.63
2019-02-18T23:16:32.000Z,19.58
2019-02-18T23:18:58.096Z,19.61
2019-02-18T23:21:24.191Z,19.59
2019-02-18T23:23:50.156Z,19.60
2019-02-18T23:26:16.168Z,19.60
2019-02-18T23:28:42.146Z,19.58
2019-02-18T23:31:08.163Z,19.57
2019-02-18T23:33:34.162Z,19.57
2019-02-18T23:36:00.226Z,19.56
2019-02-18T23:38:26.224Z,19.56
2019-02-18T23:40:52.200Z,19.54
2019-02-18T23:43:18.179Z,19.53
2019-02-18T23:45:44.171Z,19.54
2019-02-18T23:48:10.176Z,19.54
2019-02-18T23:50:36.223Z,19.54
2019-02-18T23:53:02.217Z,19.54
2019-02-18T23:55:28.229Z,19.52
2019-02-18T23:57:54.204Z,19.51
